createdAt,value
2018-08-04T00:00:53.126Z,22.50
2018-08-04T00:03:23.720Z,22.40
2018-08-04T00:05:53.785Z,22.40
2018-08-04T00:08:23.887Z,22.40
2018-08-04T00:10:53.870Z,22.40
2018-08-04T00:13:23.891Z,22.30
2018-08-04T00:15:53.879Z,22.30
2018-08-04T00:18:23.911Z,22.30
2018-08-04T00:20:53.941Z,22.30
2018-08-04T00:23:23.980Z,22.30
2018-08-04T00:25:54.308Z,22.30
2018-08-04T00:28:24.512Z,22.20
2018-08-04T00:30:54.555Z,22.20
2018-08-04T00:33:24.558Z,22.10
2018-08-04T00:35:54.669Z,22.10
2018-08-04T00:38:24.649Z,22.10
2018-08-04T00:40:54.683Z,22.10
2018-08-04T00:43:24.764Z,22.10
2018-08-04T00:45:54.831Z,22.00
2018-08-04T00:48:24.816Z,22.00
2018-08-04T00:50:54.986Z,22.00
2018-08-04T00:53:24.991Z,21.90
2018-08-04T00:55:55.011Z,21.90
2018-08-04T00:58:24.973Z,21.80
2018-08-04T01:00:55.006Z,21.80
2018-08-04T01:03:25.012Z,21.80
2018-08-04T01:05:55.048Z,21.80
2018-08-04T01:08:25.064Z,21.80
2018-08-04T01:10:55.068Z,21.80
2018-08-04T01:13:25.100Z,21.80
2018-08-04T01:15:55.066Z,21.80
2018-08-04T01:18:25.073Z,21.70
2018-08-04T01:20:55.131Z,21.70
2018-08-04T01:23:25.177Z,21.70
2018-08-04T01:25:55.145Z,21.70
2018-08-04T01:28:25.153Z,21.70
2018-08-04T01:30:55.475Z,21.70
2018-08-04T01:33:25.490Z,21.70
2018-08-04T01:35:55.548Z,21.70
2018-08-04T01:38:25.602Z,21.70
2018-08-04T01:40:55.591Z,21.60
2018-08-04T01:43:25.635Z,21.60
2018-08-04T01:45:55.617Z,21.60
2018-08-04T01:48:25.636Z,21.60
2018-08-04T01:50:55.726Z,21.50
2018-08-04T01:53:25.769Z,21.50
2018-08-04T01:55:55.809Z,21.60
2018-08-04T01:58:25.813Z,21.60
2018-08-04T02:00:55.866Z,21.50
2018-08-04T02:03:26.433Z,21.50
2018-08-04T02:05:56.429Z,21.50
2018-08-04T02:08:26.634Z,21.40
2018-08-04T02:10:56.667Z,21.40
2018-08-04T02:13:26.650Z,21.40
2018-08-04T02:15:56.695Z,21.40
2018-08-04T02:18:26.724Z,21.40
2018-08-04T02:20:56.768Z,21.40
2018-08-04T02:23:26.763Z,21.30
2018-08-04T02:25:56.776Z,21.30
2018-08-04T02:28:26.781Z,21.30
2018-08-04T02:30:56.856Z,21.30
2018-08-04T02:33:26.868Z,21.30
2018-08-04T02:35:56.946Z,21.20
2018-08-04T02:38:27.527Z,21.20
2018-08-04T02:40:57.545Z,21.20
2018-08-04T02:43:27.535Z,21.20
2018-08-04T02:45:57.537Z,21.20
2018-08-04T02:48:27.548Z,21.20
2018-08-04T02:50:57.544Z,21.20
2018-08-04T02:53:27.584Z,21.20
2018-08-04T02:55:57.642Z,21.10
2018-08-04T02:58:27.628Z,21.10
2018-08-04T03:00:57.600Z,21.20
2018-08-04T03:03:27.709Z,21.10
2018-08-04T03:05:57.717Z,21.10
2018-08-04T03:08:27.920Z,21.10
2018-08-04T03:13:27.617Z,21.20
2018-08-04T03:15:57.580Z,21.20
2018-08-04T03:18:27.576Z,21.20
2018-08-04T03:23:27.835Z,21.20
2018-08-04T03:25:57.817Z,21.20
2018-08-04T03:28:27.973Z,21.10
2018-08-04T03:30:58.000Z,21.10
2018-08-04T03:33:28.009Z,21.10
2018-08-04T03:35:58.099Z,21.00
2018-08-04T03:38:28.183Z,21.00
2018-08-04T03:40:58.262Z,21.00
2018-08-04T03:43:28.298Z,21.00
2018-08-04T03:45:58.272Z,21.00
2018-08-04T03:48:28.394Z,20.90
2018-08-04T03:50:58.432Z,20.90
2018-08-04T03:53:28.434Z,20.90
2018-08-04T03:55:58.701Z,21.00
2018-08-04T03:58:28.722Z,21.00
2018-08-04T04:00:58.728Z,21.00
2018-08-04T04:03:29.640Z,21.00
2018-08-04T04:05:59.651Z,21.00
2018-08-04T04:08:29.714Z,21.00
2018-08-04T04:10:59.654Z,21.00
2018-08-04T04:13:29.729Z,21.00
2018-08-04T04:15:59.782Z,21.00
2018-08-04T04:18:29.903Z,21.00
2018-08-04T04:21:00.034Z,21.10
2018-08-04T04:23:30.076Z,21.10
2018-08-04T04:26:00.079Z,21.10
2018-08-04T04:28:30.156Z,21.10
2018-08-04T04:31:00.221Z,21.10
2018-08-04T04:33:30.285Z,21.20
2018-08-04T04:36:00.271Z,21.20
2018-08-04T04:38:30.347Z,21.20
2018-08-04T04:41:00.437Z,21.30
2018-08-04T04:43:30.490Z,21.30
2018-08-04T04:46:00.527Z,21.30
2018-08-04T04:48:30.635Z,21.40
2018-08-04T04:51:00.607Z,21.40
2018-08-04T04:53:30.674Z,21.40
2018-08-04T04:56:00.734Z,21.50
2018-08-04T04:58:30.819Z,21.40
2018-08-04T05:01:00.836Z,21.50
2018-08-04T05:03:30.897Z,21.50
2018-08-04T05:06:00.915Z,21.50
2018-08-04T05:08:30.952Z,21.50
2018-08-04T05:11:00.963Z,21.50
2018-08-04T05:13:31.156Z,21.50
2018-08-04T05:16:01.257Z,21.50
2018-08-04T05:18:31.304Z,21.60
2018-08-04T05:21:01.313Z,21.60
2018-08-04T05:23:31.381Z,21.60
2018-08-04T05:26:01.397Z,21.70
2018-08-04T05:28:31.455Z,21.70
2018-08-04T05:31:01.435Z,21.70
2018-08-04T05:33:31.435Z,21.80
2018-08-04T05:36:01.534Z,21.80
2018-08-04T05:38:31.505Z,21.90
2018-08-04T05:41:01.647Z,21.90
2018-08-04T05:43:32.279Z,21.90
2018-08-04T05:46:02.279Z,21.90
2018-08-04T05:48:32.693Z,22.00
2018-08-04T05:51:02.813Z,22.10
2018-08-04T05:53:32.872Z,22.10
2018-08-04T05:56:02.916Z,22.10
2018-08-04T05:58:33.007Z,22.20
2018-08-04T06:01:03.137Z,22.30
2018-08-04T06:03:33.996Z,22.30
2018-08-04T06:06:04.420Z,22.40
2018-08-04T06:08:34.594Z,22.40
2018-08-04T06:11:04.659Z,22.50
2018-08-04T06:13:34.708Z,22.50
2018-08-04T06:16:04.961Z,22.60
2018-08-04T06:18:36.023Z,22.60
2018-08-04T06:21:06.062Z,22.60
2018-08-04T06:23:36.122Z,22.70
2018-08-04T06:28:36.838Z,22.80
2018-08-04T06:31:06.866Z,22.80
2018-08-04T06:33:36.867Z,22.90
2018-08-04T06:36:07.177Z,22.90
2018-08-04T06:38:37.619Z,23.00
2018-08-04T06:41:08.049Z,23.00
2018-08-04T06:43:38.461Z,23.10
2018-08-04T06:46:08.728Z,23.10
2018-08-04T06:48:39.112Z,23.20
2018-08-04T06:51:09.798Z,23.20
2018-08-04T06:53:40.456Z,23.30
2018-08-04T06:56:10.723Z,23.30
2018-08-04T06:58:40.801Z,23.40
2018-08-04T07:01:11.831Z,23.50
2018-08-04T07:03:42.137Z,23.60
2018-08-04T07:06:12.568Z,23.70
2018-08-04T07:08:42.996Z,23.80
2018-08-04T07:11:13.491Z,23.90
2018-08-04T07:13:44.017Z,24.00
2018-08-04T07:16:14.523Z,24.00
2018-08-04T07:18:44.969Z,24.10
2018-08-04T07:21:15.965Z,24.10
2018-08-04T07:23:46.376Z,24.20
2018-08-04T07:26:16.848Z,24.30
2018-08-04T07:28:47.305Z,24.40
2018-08-04T07:31:17.936Z,24.40
2018-08-04T07:33:48.325Z,24.40
2018-08-04T07:36:18.488Z,24.50
2018-08-04T07:38:48.976Z,24.60
2018-08-04T07:41:19.332Z,24.70
2018-08-04T07:43:49.731Z,24.80
2018-08-04T07:46:20.208Z,24.90
2018-08-04T07:48:50.662Z,25.00
2018-08-04T07:51:21.357Z,25.10
2018-08-04T07:53:52.757Z,25.20
2018-08-04T07:56:23.155Z,25.30
2018-08-04T07:58:53.880Z,25.30
2018-08-04T08:01:24.460Z,25.50
2018-08-04T08:03:55.079Z,25.60
2018-08-04T08:06:25.355Z,25.70
2018-08-04T08:08:55.526Z,25.80
2018-08-04T08:11:25.524Z,25.90
2018-08-04T08:13:55.611Z,26.10
2018-08-04T08:16:25.651Z,26.20
2018-08-04T08:18:55.913Z,26.30
2018-08-04T08:21:26.014Z,26.50
2018-08-04T08:23:56.323Z,26.60
2018-08-04T08:26:26.309Z,26.60
2018-08-04T08:28:56.379Z,26.60
2018-08-04T08:31:26.380Z,26.70
2018-08-04T08:33:56.455Z,26.90
2018-08-04T08:36:26.562Z,27.00
2018-08-04T08:38:56.643Z,27.20
2018-08-04T08:41:26.724Z,27.30
2018-08-04T08:43:56.848Z,27.40
2018-08-04T08:46:26.889Z,27.60
2018-08-04T08:48:56.947Z,27.70
2018-08-04T08:51:27.065Z,28.00
2018-08-04T08:53:57.275Z,28.10
2018-08-04T08:56:27.402Z,28.30
2018-08-04T08:58:57.489Z,28.30
2018-08-04T09:01:27.597Z,28.30
2018-08-04T09:03:57.668Z,28.50
2018-08-04T09:06:27.717Z,28.60
2018-08-04T09:08:57.738Z,28.80
2018-08-04T09:11:27.794Z,29.10
2018-08-04T09:13:57.818Z,29.40
2018-08-04T09:16:27.898Z,29.50
2018-08-04T09:18:57.913Z,29.50
2018-08-04T09:21:27.990Z,29.70
2018-08-04T09:23:58.913Z,29.80
2018-08-04T09:26:28.973Z,29.70
2018-08-04T09:28:58.943Z,29.70
2018-08-04T09:31:28.979Z,29.80
2018-08-04T09:33:58.985Z,30.00
2018-08-04T09:36:29.035Z,30.00
2018-08-04T09:38:59.078Z,30.00
2018-08-04T09:41:29.099Z,30.20
2018-08-04T09:43:59.147Z,30.40
2018-08-04T09:46:29.192Z,30.50
2018-08-04T09:48:59.319Z,30.70
2018-08-04T09:51:29.474Z,31.00
2018-08-04T09:53:59.567Z,31.30
2018-08-04T09:56:30.830Z,31.70
2018-08-04T09:59:01.172Z,31.70
2018-08-04T10:01:37.788Z,31.70
2018-08-04T10:04:09.220Z,31.70
2018-08-04T10:06:39.672Z,31.50
2018-08-04T10:09:12.391Z,31.70
2018-08-04T10:11:42.706Z,31.70
2018-08-04T10:14:13.144Z,32.00
2018-08-04T10:16:43.738Z,32.20
2018-08-04T10:19:13.848Z,32.00
2018-08-04T10:21:43.877Z,31.90
2018-08-04T10:24:14.012Z,31.80
2018-08-04T10:26:44.064Z,31.90
2018-08-04T10:29:14.069Z,32.00
2018-08-04T10:31:44.107Z,32.20
2018-08-04T10:36:44.303Z,32.10
2018-08-04T10:39:14.315Z,32.00
2018-08-04T10:41:44.405Z,31.80
2018-08-04T10:44:14.477Z,31.70
2018-08-04T10:46:44.972Z,31.90
2018-08-04T10:49:15.084Z,32.40
2018-08-04T10:51:45.172Z,32.70
2018-08-04T10:54:15.283Z,33.20
2018-08-04T10:59:14.851Z,33.30
2018-08-04T11:01:44.874Z,33.30
2018-08-04T11:04:14.913Z,33.60
2018-08-04T11:06:44.903Z,33.50
2018-08-04T11:09:14.981Z,33.70
2018-08-04T11:11:44.960Z,33.90
2018-08-04T11:14:15.006Z,34.30
2018-08-04T11:21:44.304Z,34.70
2018-08-04T11:24:14.415Z,34.90
2018-08-04T11:26:44.559Z,34.70
2018-08-04T11:29:14.721Z,34.30
2018-08-04T11:31:44.785Z,34.10
2018-08-04T11:34:14.825Z,34.00
2018-08-04T11:36:44.807Z,34.20
2018-08-04T11:39:14.886Z,34.50
2018-08-04T11:41:44.876Z,34.70
2018-08-04T11:44:14.937Z,34.60
2018-08-04T11:46:44.996Z,34.70
2018-08-04T11:49:14.973Z,35.00
2018-08-04T11:51:44.991Z,34.70
2018-08-04T11:54:14.965Z,34.20
2018-08-04T11:56:45.036Z,34.60
2018-08-04T11:59:15.025Z,34.80
2018-08-04T12:01:45.047Z,34.80
2018-08-04T12:04:15.058Z,34.90
2018-08-04T12:06:45.119Z,35.50
2018-08-04T12:09:15.081Z,35.90
2018-08-04T12:11:45.187Z,36.40
2018-08-04T12:14:15.178Z,36.40
2018-08-04T12:16:45.218Z,36.20
2018-08-04T12:19:15.251Z,36.70
2018-08-04T12:21:46.086Z,37.50
2018-08-04T12:24:16.354Z,37.80
2018-08-04T12:26:46.371Z,38.40
2018-08-04T12:29:16.414Z,38.70
2018-08-04T12:31:46.433Z,38.90
2018-08-04T12:34:16.525Z,39.00
2018-08-04T12:36:46.576Z,38.50
2018-08-04T12:39:16.827Z,38.00
2018-08-04T12:41:46.885Z,38.20
2018-08-04T12:44:16.997Z,38.50
2018-08-04T12:46:47.100Z,38.00
2018-08-04T12:49:17.066Z,37.70
2018-08-04T12:51:47.136Z,37.70
2018-08-04T12:54:17.285Z,37.50
2018-08-04T12:56:47.262Z,37.20
2018-08-04T12:59:17.346Z,36.80
2018-08-04T13:01:47.394Z,36.90
2018-08-04T13:04:17.389Z,36.90
2018-08-04T13:06:47.527Z,36.80
2018-08-04T13:09:17.486Z,37.10
2018-08-04T13:11:47.533Z,37.60
2018-08-04T13:14:17.520Z,39.10
2018-08-04T13:16:47.639Z,41.40
2018-08-04T13:19:17.630Z,42.90
2018-08-04T13:21:47.666Z,44.10
2018-08-04T13:24:17.717Z,45.50
2018-08-04T13:26:47.753Z,46.80
2018-08-04T13:29:17.734Z,46.50
2018-08-04T13:31:47.776Z,47.00
2018-08-04T13:34:17.753Z,46.90
2018-08-04T13:36:47.861Z,47.40
2018-08-04T13:39:17.980Z,48.10
2018-08-04T13:41:48.120Z,48.80
2018-08-04T13:44:18.171Z,48.90
2018-08-04T13:46:48.293Z,49.30
2018-08-04T13:49:18.297Z,49.20
2018-08-04T13:51:48.308Z,49.30
2018-08-04T13:54:18.353Z,49.20
2018-08-04T13:56:48.455Z,49.00
2018-08-04T13:59:18.464Z,48.90
2018-08-04T14:01:48.507Z,48.60
2018-08-04T14:04:18.507Z,48.00
2018-08-04T14:06:48.619Z,47.50
2018-08-04T14:09:18.584Z,47.10
2018-08-04T14:11:48.594Z,47.10
2018-08-04T14:14:18.693Z,47.10
2018-08-04T14:16:48.815Z,46.30
2018-08-04T14:19:18.799Z,45.90
2018-08-04T14:21:48.811Z,45.70
2018-08-04T14:24:18.830Z,44.80
2018-08-04T14:26:48.926Z,44.40
2018-08-04T14:29:18.919Z,44.10
2018-08-04T14:34:18.616Z,44.00
2018-08-04T14:36:48.642Z,44.60
2018-08-04T14:39:18.707Z,45.00
2018-08-04T14:41:48.717Z,44.70
2018-08-04T14:44:18.776Z,44.20
2018-08-04T14:46:48.781Z,43.80
2018-08-04T14:49:18.850Z,42.80
2018-08-04T14:51:48.908Z,42.20
2018-08-04T14:54:18.953Z,41.80
2018-08-04T14:56:48.929Z,41.80
2018-08-04T14:59:19.052Z,41.50
2018-08-04T15:01:49.061Z,41.60
2018-08-04T15:04:19.095Z,41.40
2018-08-04T15:06:49.121Z,41.30
2018-08-04T15:09:19.234Z,41.60
2018-08-04T15:11:49.238Z,41.40
2018-08-04T15:14:19.274Z,41.60
2018-08-04T15:16:49.269Z,41.80
2018-08-04T15:19:19.289Z,41.30
2018-08-04T15:21:49.278Z,40.70
2018-08-04T15:26:48.828Z,40.40
2018-08-04T15:29:18.861Z,39.70
2018-08-04T15:31:48.877Z,39.40
2018-08-04T15:34:18.915Z,39.40
2018-08-04T15:36:48.934Z,39.60
2018-08-04T15:39:18.952Z,39.80
2018-08-04T15:41:49.062Z,39.70
2018-08-04T15:44:19.096Z,39.30
2018-08-04T15:46:49.192Z,39.30
2018-08-04T15:49:19.202Z,39.30
2018-08-04T15:51:49.247Z,39.60
2018-08-04T15:54:19.220Z,39.80
2018-08-04T15:56:49.279Z,40.10
2018-08-04T15:59:19.478Z,40.00
2018-08-04T16:01:49.483Z,39.80
2018-08-04T16:04:19.457Z,39.70
2018-08-04T16:06:49.568Z,39.30
2018-08-04T16:09:19.573Z,39.20
2018-08-04T16:11:49.629Z,38.50
2018-08-04T16:14:19.583Z,37.90
2018-08-04T16:16:49.682Z,37.60
2018-08-04T16:19:19.666Z,37.50
2018-08-04T16:21:49.711Z,37.40
2018-08-04T16:24:19.766Z,37.50
2018-08-04T16:26:49.751Z,37.30
2018-08-04T16:29:19.736Z,37.00
2018-08-04T16:34:19.401Z,36.40
2018-08-04T16:36:49.404Z,36.00
2018-08-04T16:39:19.857Z,35.90
2018-08-04T16:41:50.895Z,36.00
2018-08-04T16:44:21.510Z,36.10
2018-08-04T16:46:51.554Z,36.20
2018-08-04T16:49:21.595Z,36.10
2018-08-04T16:51:51.634Z,36.20
2018-08-04T16:56:51.264Z,35.90
2018-08-04T16:59:21.296Z,35.90
2018-08-04T17:01:51.577Z,36.00
2018-08-04T17:04:21.667Z,35.70
2018-08-04T17:06:51.717Z,35.60
2018-08-04T17:09:21.729Z,35.40
2018-08-04T17:11:51.708Z,35.10
2018-08-04T17:14:21.805Z,34.90
2018-08-04T17:16:52.217Z,34.90
2018-08-04T17:21:52.804Z,34.80
2018-08-04T17:24:23.316Z,34.60
2018-08-04T17:26:53.622Z,34.40
2018-08-04T17:31:54.118Z,34.30
2018-08-04T17:34:24.416Z,34.30
2018-08-04T17:36:54.782Z,34.20
2018-08-04T17:39:25.369Z,34.10
2018-08-04T17:41:55.944Z,33.90
2018-08-04T17:44:26.261Z,33.80
2018-08-04T17:46:56.695Z,33.60
2018-08-04T17:49:27.181Z,33.40
2018-08-04T17:51:57.565Z,33.30
2018-08-04T17:54:27.618Z,33.10
2018-08-04T17:56:58.033Z,32.90
2018-08-04T17:59:28.173Z,32.70
2018-08-04T18:01:58.479Z,32.60
2018-08-04T18:04:28.478Z,32.40
2018-08-04T18:06:58.539Z,32.30
2018-08-04T18:09:28.556Z,32.00
2018-08-04T18:11:58.994Z,31.90
2018-08-04T18:14:29.021Z,31.70
2018-08-04T18:16:59.033Z,31.50
2018-08-04T18:19:29.127Z,31.30
2018-08-04T18:21:59.201Z,31.20
2018-08-04T18:24:29.255Z,31.10
2018-08-04T18:26:59.328Z,31.00
2018-08-04T18:29:29.334Z,30.90
2018-08-04T18:31:59.510Z,30.80
2018-08-04T18:34:29.808Z,30.80
2018-08-04T18:36:59.865Z,30.70
2018-08-04T18:39:29.977Z,30.70
2018-08-04T18:41:59.924Z,30.70
2018-08-04T18:44:30.009Z,30.70
2018-08-04T18:46:59.933Z,30.60
2018-08-04T18:49:30.007Z,30.60
2018-08-04T18:51:59.971Z,30.60
2018-08-04T18:54:30.081Z,30.60
2018-08-04T18:57:00.129Z,30.50
2018-08-04T18:59:30.243Z,30.40
2018-08-04T19:02:00.231Z,30.20
2018-08-04T19:04:30.281Z,30.10
2018-08-04T19:07:00.316Z,30.00
2018-08-04T19:09:30.691Z,29.90
2018-08-04T19:12:01.114Z,29.90
2018-08-04T19:14:31.636Z,29.80
2018-08-04T19:17:01.986Z,29.60
2018-08-04T19:19:32.538Z,29.50
2018-08-04T19:22:03.014Z,29.20
2018-08-04T19:24:33.698Z,29.00
2018-08-04T19:27:03.847Z,28.80
2018-08-04T19:29:34.123Z,28.60
2018-08-04T19:32:04.611Z,28.50
2018-08-04T19:37:05.057Z,28.30
2018-08-04T19:42:05.588Z,28.20
2018-08-04T19:44:36.093Z,28.10
2018-08-04T19:47:06.437Z,27.90
2018-08-04T19:49:36.945Z,27.90
2018-08-04T19:52:10.162Z,27.90
2018-08-04T19:54:40.623Z,27.90
2018-08-04T19:57:11.008Z,27.80
2018-08-04T19:59:41.505Z,27.70
2018-08-04T20:02:11.790Z,27.70
2018-08-04T20:04:42.164Z,27.60
2018-08-04T20:07:12.519Z,27.60
2018-08-04T20:09:43.131Z,27.50
2018-08-04T20:12:13.700Z,27.40
2018-08-04T20:14:45.312Z,27.30
2018-08-04T20:17:15.694Z,27.30
2018-08-04T20:19:46.174Z,27.30
2018-08-04T20:22:17.591Z,27.20
2018-08-04T20:24:48.040Z,27.10
2018-08-04T20:27:18.390Z,27.10
2018-08-04T20:29:48.857Z,27.10
2018-08-04T20:34:49.515Z,27.00
2018-08-04T20:37:20.246Z,26.90
2018-08-04T20:39:50.879Z,26.80
2018-08-04T20:42:21.422Z,26.80
2018-08-04T20:44:51.838Z,26.80
2018-08-04T20:47:22.226Z,26.70
2018-08-04T20:49:52.805Z,26.50
2018-08-04T20:52:23.104Z,26.50
2018-08-04T20:54:53.564Z,26.40
2018-08-04T20:57:27.303Z,26.40
2018-08-04T20:59:57.947Z,26.30
2018-08-04T21:02:28.405Z,26.20
2018-08-04T21:04:58.948Z,26.20
2018-08-04T21:07:29.306Z,26.20
2018-08-04T21:10:00.685Z,26.10
2018-08-04T21:15:01.045Z,26.10
2018-08-04T21:17:32.945Z,26.00
2018-08-04T21:20:03.522Z,26.10
2018-08-04T21:22:33.838Z,26.00
2018-08-04T21:25:04.168Z,26.10
2018-08-04T21:27:34.796Z,26.10
2018-08-04T21:30:05.999Z,26.00
2018-08-04T21:32:36.526Z,26.00
2018-08-04T21:35:06.853Z,25.90
2018-08-04T21:37:37.354Z,25.90
2018-08-04T21:40:08.113Z,25.90
2018-08-04T21:42:38.191Z,25.70
2018-08-04T21:45:08.709Z,25.80
2018-08-04T21:47:38.808Z,25.70
2018-08-04T21:50:08.851Z,25.70
2018-08-04T21:55:09.091Z,25.60
2018-08-04T22:00:12.722Z,25.60
2018-08-04T22:02:57.782Z,25.50
2018-08-04T22:05:28.695Z,25.50
2018-08-04T22:08:15.425Z,25.30
2018-08-04T22:10:46.016Z,25.10
2018-08-04T22:13:16.303Z,25.00
2018-08-04T22:15:46.369Z,25.00
2018-08-04T22:18:16.536Z,24.90
2018-08-04T22:20:46.599Z,25.00
2018-08-04T22:23:16.563Z,25.00
2018-08-04T22:25:46.625Z,25.00
2018-08-04T22:28:16.648Z,25.00
2018-08-04T22:30:46.660Z,25.00
2018-08-04T22:33:16.660Z,24.90
2018-08-04T22:35:46.669Z,24.90
2018-08-04T22:38:16.727Z,24.80
2018-08-04T22:40:46.785Z,24.80
2018-08-04T22:43:16.742Z,24.80
2018-08-04T22:46:16.768Z,24.70
2018-08-04T22:48:48.171Z,24.70
2018-08-04T22:51:23.319Z,24.70
2018-08-04T22:53:53.409Z,24.70
2018-08-04T22:56:23.539Z,24.70
2018-08-04T22:58:53.635Z,24.70
2018-08-04T23:01:23.656Z,24.70
2018-08-04T23:03:53.664Z,24.70
2018-08-04T23:06:27.587Z,24.70
2018-08-04T23:08:57.574Z,24.70
2018-08-04T23:11:27.563Z,24.50
2018-08-04T23:13:57.552Z,24.40
2018-08-04T23:16:27.552Z,24.30
2018-08-04T23:18:57.503Z,24.20
2018-08-04T23:21:27.652Z,24.20
2018-08-04T23:23:57.625Z,24.20
2018-08-04T23:26:27.582Z,24.10
2018-08-04T23:28:57.632Z,24.10
2018-08-04T23:31:27.692Z,24.10
2018-08-04T23:33:57.738Z,24.10
2018-08-04T23:36:27.713Z,24.00
2018-08-04T23:38:57.711Z,24.00
2018-08-04T23:41:27.685Z,24.00
2018-08-04T23:43:57.679Z,23.90
2018-08-04T23:46:27.607Z,23.80
2018-08-04T23:48:57.546Z,23.80
2018-08-04T23:51:27.908Z,23.70
2018-08-04T23:53:57.883Z,23.60
2018-08-04T23:56:27.883Z,23.60
2018-08-04T23:59:01.039Z,23.60
